Time;durP1;ratioP1;P1;durP2;ratioP2;P2;SDS_P1;SDS_P2;PMS_P1;PMS_P2;Temp;Humidity;BMP_temperature;BMP_pressure;BME280_temperature;BME280_humidity;BME280_pressure;Samples;Min_cycle;Max_cycle;Signal;HPM_P1;HPM_P2
2023/06/22 00:00:45;;;;;;;25.27;23.60;;;;;;;;;;5063719;28;20449;-79
2023/06/22 00:03:12;;;;;;;24.30;22.70;;;;;;;;;;5062330;28;20509;-79
2023/06/22 00:05:39;;;;;;;24.47;23.07;;;;;;;;;;5057513;28;20515;-79
2023/06/22 00:08:06;;;;;;;25.03;23.30;;;;;;;;;;5057729;28;20443;-79
2023/06/22 00:10:33;;;;;;;24.30;22.93;;;;;;;;;;5057817;28;20501;-80
2023/06/22 00:13:00;;;;;;;24.73;23.30;;;;;;;;;;5058524;28;20569;-79
2023/06/22 00:15:29;;;;;;;25.10;23.60;;;;;;;;;;5058428;28;20484;-78
2023/06/22 00:17:57;;;;;;;24.57;23.17;;;;;;;;;;5058570;28;20481;-79
2023/06/22 00:20:27;;;;;;;24.60;23.20;;;;;;;;;;5058906;28;20469;-80
2023/06/22 00:22:54;;;;;;;25.77;24.30;;;;;;;;;;5058179;28;20507;-79
2023/06/22 00:25:21;;;;;;;24.10;22.70;;;;;;;;;;5057750;28;20487;-79
2023/06/22 00:27:48;;;;;;;24.50;23.10;;;;;;;;;;5056898;28;20450;-79
2023/06/22 00:30:15;;;;;;;24.40;22.90;;;;;;;;;;5057191;28;20433;-79
2023/06/22 00:32:44;;;;;;;25.27;23.63;;;;;;;;;;5058551;28;20843;-79
2023/06/22 00:35:11;;;;;;;24.27;22.67;;;;;;;;;;5057924;28;20450;-79
2023/06/22 00:37:41;;;;;;;24.73;23.23;;;;;;;;;;5059468;28;20445;-79
2023/06/22 00:40:11;;;;;;;24.27;22.87;;;;;;;;;;5059416;28;20486;-80
2023/06/22 00:42:38;;;;;;;25.00;23.40;;;;;;;;;;5058432;28;20447;-79
2023/06/22 00:45:05;;;;;;;24.37;22.97;;;;;;;;;;5058014;28;20486;-79
2023/06/22 00:47:32;;;;;;;24.43;22.93;;;;;;;;;;5058260;28;20903;-79
2023/06/22 00:50:01;;;;;;;25.20;23.47;;;;;;;;;;5059055;28;20444;-79
2023/06/22 00:52:30;;;;;;;25.07;23.57;;;;;;;;;;5058812;28;20450;-80
2023/06/22 00:54:58;;;;;;;24.50;23.10;;;;;;;;;;5058296;28;20406;-80
2023/06/22 00:57:27;;;;;;;24.00;22.67;;;;;;;;;;5056821;28;20905;-80
2023/06/22 00:59:55;;;;;;;23.87;22.47;;;;;;;;;;5057813;28;20536;-80
2023/06/22 01:02:22;;;;;;;28.30;26.50;;;;;;;;;;5057998;28;20429;-78
2023/06/22 01:04:49;;;;;;;28.53;26.73;;;;;;;;;;5057700;28;20505;-78
2023/06/22 01:07:23;;;;;;;26.80;25.17;;;;;;;;;;5055629;28;20447;-79
2023/06/22 01:09:54;;;;;;;29.70;27.80;;;;;;;;;;5056614;28;20453;-80
2023/06/22 01:12:21;;;;;;;29.60;27.60;;;;;;;;;;5056814;28;20394;-80
2023/06/22 01:14:52;;;;;;;29.40;27.40;;;;;;;;;;5056577;28;20436;-79
2023/06/22 01:17:21;;;;;;;29.40;27.40;;;;;;;;;;5056459;28;20758;-80
2023/06/22 01:19:55;;;;;;;30.80;28.50;;;;;;;;;;5056535;28;20439;-79
2023/06/22 01:22:25;;;;;;;30.53;28.43;;;;;;;;;;5058289;28;20429;-80
2023/06/22 01:24:56;;;;;;;29.97;28.03;;;;;;;;;;5057326;28;20425;-79
2023/06/22 01:27:30;;;;;;;30.90;28.80;;;;;;;;;;5057106;28;20435;-79
2023/06/22 01:30:00;;;;;;;30.60;28.40;;;;;;;;;;5057148;28;20569;-79
2023/06/22 01:32:28;;;;;;;30.23;28.30;;;;;;;;;;5056201;28;20558;-80
2023/06/22 01:34:55;;;;;;;32.33;30.13;;;;;;;;;;5056706;28;20511;-79
2023/06/22 01:37:22;;;;;;;29.50;27.30;;;;;;;;;;5061558;28;20410;-80
2023/06/22 01:39:50;;;;;;;30.73;28.43;;;;;;;;;;5057874;28;20478;-80
2023/06/22 01:42:17;;;;;;;31.13;28.83;;;;;;;;;;5056715;28;20975;-79
2023/06/22 01:44:45;;;;;;;31.27;29.07;;;;;;;;;;5056487;28;20439;-80
2023/06/22 01:47:14;;;;;;;31.23;29.13;;;;;;;;;;5055581;28;20467;-80
2023/06/22 01:49:41;;;;;;;31.87;29.67;;;;;;;;;;5056479;28;20504;-79
2023/06/22 01:52:08;;;;;;;31.37;29.27;;;;;;;;;;5055853;28;20895;-79
2023/06/22 01:54:35;;;;;;;30.50;28.30;;;;;;;;;;5055984;28;20434;-80
2023/06/22 01:57:02;;;;;;;29.97;27.97;;;;;;;;;;5055900;28;20469;-79
2023/06/22 01:59:32;;;;;;;30.93;28.83;;;;;;;;;;5055347;28;20414;-79
2023/06/22 02:02:01;;;;;;;30.30;28.20;;;;;;;;;;5057645;28;20425;-80
2023/06/22 02:04:34;;;;;;;30.90;28.60;;;;;;;;;;5055945;28;20500;-79
2023/06/22 02:07:02;;;;;;;31.73;29.30;;;;;;;;;;5055093;28;20458;-79
2023/06/22 02:09:31;;;;;;;31.37;29.00;;;;;;;;;;5056013;28;20433;-80
2023/06/22 02:11:59;;;;;;;30.97;28.70;;;;;;;;;;5062308;28;20469;-80
2023/06/22 02:14:26;;;;;;;32.67;30.17;;;;;;;;;;5064214;28;20504;-81
2023/06/22 02:16:54;;;;;;;31.60;29.50;;;;;;;;;;5065234;28;20438;-81
2023/06/22 02:19:24;;;;;;;31.83;29.60;;;;;;;;;;5068137;28;20425;-81
2023/06/22 02:21:52;;;;;;;33.23;30.70;;;;;;;;;;5072958;28;20430;-81
2023/06/22 02:24:23;;;;;;;32.10;29.87;;;;;;;;;;5074198;28;20422;-80
2023/06/22 02:26:50;;;;;;;33.63;31.23;;;;;;;;;;5075827;28;20441;-80
2023/06/22 02:29:17;;;;;;;30.30;28.20;;;;;;;;;;5070351;28;20422;-80
2023/06/22 02:31:44;;;;;;;29.07;27.07;;;;;;;;;;5061059;28;20445;-79
2023/06/22 02:34:17;;;;;;;32.13;29.83;;;;;;;;;;5068577;28;20476;-80
2023/06/22 02:36:50;;;;;;;31.47;29.27;;;;;;;;;;5062806;28;20402;-79
2023/06/22 02:39:19;;;;;;;31.17;28.87;;;;;;;;;;5060997;28;20457;-78
2023/06/22 02:41:46;;;;;;;29.23;27.33;;;;;;;;;;5064342;28;20949;-80
2023/06/22 02:44:13;;;;;;;30.03;27.93;;;;;;;;;;5063553;28;20483;-80
2023/06/22 02:46:40;;;;;;;28.53;26.70;;;;;;;;;;5062145;28;20977;-79
2023/06/22 02:49:07;;;;;;;29.30;27.37;;;;;;;;;;5059657;28;20451;-79
2023/06/22 02:51:35;;;;;;;28.67;26.77;;;;;;;;;;5059734;28;20841;-80
2023/06/22 02:54:02;;;;;;;29.60;27.70;;;;;;;;;;5060314;28;20421;-79
2023/06/22 02:56:31;;;;;;;28.77;26.87;;;;;;;;;;5059074;28;20424;-79
2023/06/22 02:59:00;;;;;;;29.10;27.30;;;;;;;;;;5059344;28;20524;-79
2023/06/22 03:01:27;;;;;;;28.33;26.43;;;;;;;;;;5058237;28;20636;-80
2023/06/22 03:03:55;;;;;;;28.47;26.67;;;;;;;;;;5060042;28;20485;-79
2023/06/22 03:06:23;;;;;;;31.80;29.60;;;;;;;;;;5059179;28;20479;-78
2023/06/22 03:08:50;;;;;;;31.40;28.90;;;;;;;;;;5059671;28;20450;-79
2023/06/22 03:11:17;;;;;;;31.23;29.03;;;;;;;;;;5059435;28;20809;-79
2023/06/22 03:13:46;;;;;;;30.67;28.70;;;;;;;;;;5062086;28;20440;-80
2023/06/22 03:16:13;;;;;;;31.60;29.20;;;;;;;;;;5063040;28;20507;-78
2023/06/22 03:18:40;;;;;;;32.70;30.30;;;;;;;;;;5058023;28;20501;-79
2023/06/22 03:21:07;;;;;;;32.60;30.10;;;;;;;;;;5056932;28;20475;-80
2023/06/22 03:23:34;;;;;;;32.37;30.07;;;;;;;;;;5057126;28;20434;-79
2023/06/22 03:26:01;;;;;;;32.43;30.20;;;;;;;;;;5056242;28;21397;-79
2023/06/22 03:28:28;;;;;;;33.13;30.73;;;;;;;;;;5058004;28;20426;-80
2023/06/22 03:30:58;;;;;;;34.57;31.63;;;;;;;;;;5057488;28;20501;-78
2023/06/22 03:33:25;;;;;;;33.70;31.10;;;;;;;;;;5056867;28;20434;-77
2023/06/22 03:35:53;;;;;;;33.00;30.50;;;;;;;;;;5056455;28;20502;-77
2023/06/22 03:38:20;;;;;;;33.90;31.47;;;;;;;;;;5063822;28;20437;-77
2023/06/22 03:40:48;;;;;;;35.23;32.73;;;;;;;;;;5057177;28;20446;-77
2023/06/22 03:43:15;;;;;;;33.13;30.73;;;;;;;;;;5056742;28;20472;-77
2023/06/22 03:45:45;;;;;;;33.87;31.37;;;;;;;;;;5056422;28;20429;-78
2023/06/22 03:48:13;;;;;;;34.00;31.60;;;;;;;;;;5057370;28;20433;-78
2023/06/22 03:50:40;;;;;;;31.07;28.87;;;;;;;;;;5056787;28;20449;-78
2023/06/22 03:53:07;;;;;;;34.23;31.70;;;;;;;;;;5056791;28;20477;-77
2023/06/22 03:55:35;;;;;;;32.57;30.27;;;;;;;;;;5056260;28;20509;-78
2023/06/22 03:58:05;;;;;;;32.70;30.30;;;;;;;;;;5057462;28;20450;-78
2023/06/22 04:00:32;;;;;;;33.03;30.53;;;;;;;;;;5056123;28;20449;-78
2023/06/22 04:02:59;;;;;;;32.87;30.10;;;;;;;;;;5055062;28;20446;-77
2023/06/22 04:05:28;;;;;;;32.43;30.10;;;;;;;;;;5057361;28;20436;-78
2023/06/22 04:07:55;;;;;;;35.40;32.73;;;;;;;;;;5059201;28;20453;-78
2023/06/22 04:10:22;;;;;;;34.03;31.50;;;;;;;;;;5057304;28;20823;-77
2023/06/22 04:12:49;;;;;;;35.93;33.33;;;;;;;;;;5057076;28;20421;-78
2023/06/22 04:15:16;;;;;;;37.50;34.70;;;;;;;;;;5057113;28;20425;-78
2023/06/22 04:17:43;;;;;;;36.07;33.23;;;;;;;;;;5059661;28;20416;-79
2023/06/22 04:20:10;;;;;;;36.23;33.43;;;;;;;;;;5057796;28;20466;-78
2023/06/22 04:22:38;;;;;;;36.07;33.47;;;;;;;;;;5056831;28;20442;-78
2023/06/22 04:25:07;;;;;;;36.17;33.27;;;;;;;;;;5055440;28;20451;-78
2023/06/22 04:27:37;;;;;;;37.13;34.30;;;;;;;;;;5062192;28;20449;-76
2023/06/22 04:30:04;;;;;;;35.40;32.60;;;;;;;;;;5055871;28;20463;-78
2023/06/22 04:32:31;;;;;;;36.27;33.43;;;;;;;;;;5056273;28;20447;-76
2023/06/22 04:35:00;;;;;;;34.33;31.67;;;;;;;;;;5055259;28;20516;-76
2023/06/22 04:37:27;;;;;;;35.73;32.90;;;;;;;;;;5053924;28;20455;-78
2023/06/22 04:39:55;;;;;;;34.40;31.83;;;;;;;;;;5059726;28;20461;-78
2023/06/22 04:42:22;;;;;;;33.57;30.90;;;;;;;;;;5055874;28;20870;-77
2023/06/22 04:44:49;;;;;;;36.30;33.60;;;;;;;;;;5062816;28;20421;-78
2023/06/22 04:47:16;;;;;;;35.67;33.07;;;;;;;;;;5062851;28;20580;-79
2023/06/22 04:49:43;;;;;;;34.40;31.80;;;;;;;;;;5063817;28;20472;-78
2023/06/22 04:52:12;;;;;;;34.80;32.30;;;;;;;;;;5064394;28;20464;-78
2023/06/22 04:54:47;;;;;;;34.50;31.87;;;;;;;;;;5066750;28;20473;-79
2023/06/22 04:57:16;;;;;;;35.83;33.13;;;;;;;;;;5061606;28;20413;-78
2023/06/22 04:59:44;;;;;;;33.93;31.33;;;;;;;;;;5057028;28;20425;-78
2023/06/22 05:02:11;;;;;;;32.37;29.87;;;;;;;;;;5038069;28;20443;-77
2023/06/22 05:04:38;;;;;;;33.47;31.07;;;;;;;;;;5035996;28;20847;-77
2023/06/22 05:07:06;;;;;;;32.27;29.90;;;;;;;;;;5035765;28;20460;-78
2023/06/22 05:09:34;;;;;;;34.07;31.40;;;;;;;;;;5053078;28;20429;-77
2023/06/22 05:12:02;;;;;;;34.63;31.93;;;;;;;;;;5056366;28;20558;-78
2023/06/22 05:14:30;;;;;;;33.23;30.93;;;;;;;;;;5056273;28;20483;-78
2023/06/22 05:16:58;;;;;;;34.10;31.60;;;;;;;;;;5055168;28;20446;-78
2023/06/22 05:19:33;;;;;;;33.30;31.00;;;;;;;;;;5056080;28;20417;-79
2023/06/22 05:22:00;;;;;;;32.50;30.00;;;;;;;;;;5057660;28;20444;-78
2023/06/22 05:24:27;;;;;;;33.27;30.87;;;;;;;;;;5056111;28;20429;-78
2023/06/22 05:26:54;;;;;;;32.70;30.30;;;;;;;;;;5054525;28;20482;-77
2023/06/22 05:29:21;;;;;;;33.57;31.00;;;;;;;;;;5055250;28;20425;-78
2023/06/22 05:31:50;;;;;;;34.83;32.33;;;;;;;;;;5035547;28;20457;-78
2023/06/22 05:34:17;;;;;;;34.23;31.73;;;;;;;;;;5050931;28;20413;-78
2023/06/22 05:36:44;;;;;;;34.73;32.13;;;;;;;;;;5054265;28;20955;-78
2023/06/22 05:39:14;;;;;;;32.90;30.33;;;;;;;;;;5055236;28;20466;-77
2023/06/22 05:41:41;;;;;;;33.20;30.80;;;;;;;;;;5054201;28;20497;-78
2023/06/22 05:44:08;;;;;;;35.30;32.70;;;;;;;;;;5055148;28;20479;-77
2023/06/22 05:46:35;;;;;;;34.40;32.00;;;;;;;;;;5054272;28;20957;-78
2023/06/22 05:49:03;;;;;;;33.27;30.97;;;;;;;;;;5054599;28;20475;-78
2023/06/22 05:51:30;;;;;;;34.10;31.73;;;;;;;;;;5054853;28;20449;-78
2023/06/22 05:53:57;;;;;;;32.37;30.17;;;;;;;;;;5053936;28;20500;-78
2023/06/22 05:56:24;;;;;;;31.20;29.00;;;;;;;;;;5054089;28;20414;-78
2023/06/22 05:58:51;;;;;;;33.00;30.60;;;;;;;;;;5054981;28;20421;-78
2023/06/22 06:01:18;;;;;;;32.20;29.97;;;;;;;;;;5054560;28;20453;-78
2023/06/22 06:03:45;;;;;;;31.63;29.40;;;;;;;;;;5053860;28;20429;-78
2023/06/22 06:06:13;;;;;;;32.53;30.30;;;;;;;;;;5053845;28;20851;-79
2023/06/22 06:08:40;;;;;;;32.70;30.20;;;;;;;;;;5053941;28;20429;-78
2023/06/22 06:11:08;;;;;;;32.37;30.17;;;;;;;;;;5053861;28;20474;-78
2023/06/22 06:13:35;;;;;;;32.03;29.53;;;;;;;;;;5055035;28;20424;-78
2023/06/22 06:16:02;;;;;;;32.37;30.17;;;;;;;;;;5054372;28;20490;-78
2023/06/22 06:18:29;;;;;;;31.43;29.23;;;;;;;;;;5054523;28;20996;-79
2023/06/22 06:20:56;;;;;;;31.90;29.80;;;;;;;;;;5053514;28;20851;-78
2023/06/22 06:23:24;;;;;;;31.17;29.07;;;;;;;;;;5054963;28;20451;-78
2023/06/22 06:25:51;;;;;;;31.67;29.57;;;;;;;;;;5053432;28;20450;-78
2023/06/22 06:28:18;;;;;;;33.53;31.23;;;;;;;;;;5054474;28;20860;-78
2023/06/22 06:30:47;;;;;;;32.93;30.63;;;;;;;;;;5054206;28;20445;-78
2023/06/22 06:33:14;;;;;;;31.23;29.13;;;;;;;;;;5055416;28;20441;-78
2023/06/22 06:35:41;;;;;;;31.33;29.03;;;;;;;;;;5053810;28;20426;-78
2023/06/22 06:38:08;;;;;;;31.10;28.87;;;;;;;;;;5054094;28;20429;-78
2023/06/22 06:40:36;;;;;;;30.43;28.43;;;;;;;;;;5053398;28;20449;-78
2023/06/22 06:43:03;;;;;;;29.77;27.67;;;;;;;;;;5053105;28;20954;-77
2023/06/22 06:45:32;;;;;;;30.17;28.27;;;;;;;;;;5053625;28;20433;-78
2023/06/22 06:47:59;;;;;;;31.70;29.50;;;;;;;;;;5053940;28;20472;-78
2023/06/22 06:50:26;;;;;;;31.43;29.23;;;;;;;;;;5052891;28;20445;-78
2023/06/22 06:52:53;;;;;;;31.20;29.10;;;;;;;;;;5053986;28;20943;-78
2023/06/22 06:55:23;;;;;;;31.93;29.70;;;;;;;;;;5053571;28;20569;-78
2023/06/22 06:57:52;;;;;;;30.40;28.50;;;;;;;;;;5064268;28;20417;-79
2023/06/22 07:00:20;;;;;;;31.07;28.97;;;;;;;;;;5056856;28;20465;-79
2023/06/22 07:02:48;;;;;;;31.10;28.97;;;;;;;;;;5055370;28;20425;-79
2023/06/22 07:05:15;;;;;;;31.63;29.53;;;;;;;;;;5053679;28;20425;-79
2023/06/22 07:07:42;;;;;;;31.63;29.60;;;;;;;;;;5054258;28;20506;-77
2023/06/22 07:10:09;;;;;;;32.03;29.83;;;;;;;;;;5053028;28;20460;-77
2023/06/22 07:12:36;;;;;;;30.63;28.53;;;;;;;;;;5053505;28;20450;-78
2023/06/22 07:15:07;;;;;;;31.67;29.57;;;;;;;;;;5054445;28;20488;-77
2023/06/22 07:17:34;;;;;;;30.73;28.73;;;;;;;;;;5053365;28;20451;-77
2023/06/22 07:20:02;;;;;;;31.27;29.07;;;;;;;;;;5052757;28;21247;-77
2023/06/22 07:22:30;;;;;;;32.07;29.77;;;;;;;;;;5052296;28;20942;-77
2023/06/22 07:24:57;;;;;;;31.57;29.43;;;;;;;;;;5053237;28;20841;-80
2023/06/22 07:27:24;;;;;;;31.60;29.40;;;;;;;;;;5052039;28;21020;-77
2023/06/22 07:29:51;;;;;;;30.37;28.40;;;;;;;;;;5053109;28;20457;-77
2023/06/22 07:32:20;;;;;;;31.30;29.30;;;;;;;;;;5053318;28;20474;-77
2023/06/22 07:34:47;;;;;;;30.40;28.53;;;;;;;;;;5051558;28;20459;-76
2023/06/22 07:37:14;;;;;;;31.70;29.50;;;;;;;;;;5051307;28;20516;-77
2023/06/22 07:39:42;;;;;;;29.10;27.13;;;;;;;;;;5051474;28;20992;-76
2023/06/22 07:42:09;;;;;;;31.30;29.20;;;;;;;;;;5051684;28;20494;-76
2023/06/22 07:44:37;;;;;;;30.90;28.70;;;;;;;;;;5051714;28;20473;-76
2023/06/22 07:47:04;;;;;;;29.37;27.47;;;;;;;;;;5050733;28;20498;-76
2023/06/22 07:49:32;;;;;;;29.33;27.37;;;;;;;;;;5040863;28;20448;-76
2023/06/22 07:52:00;;;;;;;30.10;28.10;;;;;;;;;;5030694;28;20454;-76
2023/06/22 07:54:27;;;;;;;30.33;28.23;;;;;;;;;;5031274;28;20627;-75
2023/06/22 07:56:54;;;;;;;30.43;28.40;;;;;;;;;;5030867;28;20426;-78
2023/06/22 07:59:21;;;;;;;29.00;27.10;;;;;;;;;;5034794;28;20422;-81
2023/06/22 08:01:49;;;;;;;31.23;29.13;;;;;;;;;;5036065;28;20503;-78
2023/06/22 08:04:16;;;;;;;29.43;27.53;;;;;;;;;;5033654;28;20478;-78
2023/06/22 08:06:45;;;;;;;29.63;27.70;;;;;;;;;;5032158;28;20863;-80
2023/06/22 08:09:12;;;;;;;30.47;28.47;;;;;;;;;;5033090;28;20839;-79
2023/06/22 08:11:39;;;;;;;30.23;28.33;;;;;;;;;;5033290;28;20467;-78
2023/06/22 08:14:06;;;;;;;29.90;27.80;;;;;;;;;;5034113;28;20486;-78
2023/06/22 08:16:33;;;;;;;30.03;28.20;;;;;;;;;;5035404;28;20514;-79
2023/06/22 08:19:00;;;;;;;30.97;28.40;;;;;;;;;;5037379;28;20525;-79
2023/06/22 08:21:28;;;;;;;30.60;28.50;;;;;;;;;;5038592;28;20511;-82
2023/06/22 08:23:56;;;;;;;30.70;28.60;;;;;;;;;;5038104;28;21209;-80
2023/06/22 08:26:23;;;;;;;31.83;29.63;;;;;;;;;;5037545;28;20444;-79
2023/06/22 08:28:50;;;;;;;30.67;28.57;;;;;;;;;;5037477;28;20480;-80
2023/06/22 08:31:17;;;;;;;29.70;27.70;;;;;;;;;;5037581;28;20455;-80
2023/06/22 08:33:46;;;;;;;32.13;30.03;;;;;;;;;;5037171;28;20931;-77
2023/06/22 08:36:13;;;;;;;30.17;28.27;;;;;;;;;;5037630;28;20455;-77
2023/06/22 08:38:40;;;;;;;30.30;28.40;;;;;;;;;;5037368;28;20459;-79
2023/06/22 08:41:09;;;;;;;29.03;27.10;;;;;;;;;;5037542;28;20435;-78
2023/06/22 08:43:36;;;;;;;28.77;26.97;;;;;;;;;;5037217;28;20472;-83
2023/06/22 08:46:03;;;;;;;29.90;27.93;;;;;;;;;;5037228;28;20862;-82
2023/06/22 08:48:30;;;;;;;30.60;28.70;;;;;;;;;;5037701;28;20468;-79
2023/06/22 08:50:57;;;;;;;29.90;27.90;;;;;;;;;;5036346;28;20999;-79
2023/06/22 08:53:24;;;;;;;31.53;29.63;;;;;;;;;;5036876;28;20440;-81
2023/06/22 08:55:51;;;;;;;31.60;29.60;;;;;;;;;;5038344;28;20483;-81
2023/06/22 08:58:21;;;;;;;32.13;30.03;;;;;;;;;;5046157;28;20482;-82
2023/06/22 09:00:48;;;;;;;31.60;29.50;;;;;;;;;;5038101;28;20514;-79
2023/06/22 09:03:15;;;;;;;31.63;29.63;;;;;;;;;;5037916;28;20440;-82
2023/06/22 09:05:42;;;;;;;31.17;29.07;;;;;;;;;;5038014;28;20451;-80
2023/06/22 09:08:09;;;;;;;30.10;28.10;;;;;;;;;;5038171;28;20475;-78
2023/06/22 09:10:36;;;;;;;31.30;29.20;;;;;;;;;;5036696;28;20470;-79
2023/06/22 09:13:03;;;;;;;32.50;30.30;;;;;;;;;;5037229;28;20448;-81
2023/06/22 09:15:31;;;;;;;31.17;29.07;;;;;;;;;;5036611;28;20426;-83
2023/06/22 09:17:58;;;;;;;33.60;31.40;;;;;;;;;;5055180;28;20454;-81
2023/06/22 09:20:25;;;;;;;33.33;31.13;;;;;;;;;;5057710;28;20492;-81
2023/06/22 09:22:52;;;;;;;34.70;32.40;;;;;;;;;;5057059;28;21203;-76
2023/06/22 09:25:20;;;;;;;34.23;31.83;;;;;;;;;;5054563;28;20421;-81
2023/06/22 09:27:47;;;;;;;34.70;32.40;;;;;;;;;;5053930;28;20459;-77
2023/06/22 09:30:14;;;;;;;34.53;32.13;;;;;;;;;;5055776;28;20493;-82
2023/06/22 09:32:43;;;;;;;35.50;33.00;;;;;;;;;;5058510;28;21054;-81
2023/06/22 09:35:12;;;;;;;35.70;33.20;;;;;;;;;;5057192;28;20481;-81
2023/06/22 09:37:39;;;;;;;36.07;33.30;;;;;;;;;;5056542;28;20459;-80
2023/06/22 09:40:10;;;;;;;36.43;33.80;;;;;;;;;;5056578;28;20475;-85
2023/06/22 09:42:37;;;;;;;35.67;32.73;;;;;;;;;;5057435;28;20838;-83
2023/06/22 09:45:05;;;;;;;37.37;34.67;;;;;;;;;;5059127;28;20455;-82
2023/06/22 09:47:32;;;;;;;36.90;34.30;;;;;;;;;;5057077;28;20425;-82
2023/06/22 09:50:00;;;;;;;41.33;38.20;;;;;;;;;;5056722;28;20866;-82
2023/06/22 09:52:27;;;;;;;39.03;36.30;;;;;;;;;;5058178;28;20454;-84
2023/06/22 09:54:54;;;;;;;36.40;33.80;;;;;;;;;;5058438;28;20454;-83
2023/06/22 09:57:21;;;;;;;35.77;33.27;;;;;;;;;;5056301;28;20421;-84
2023/06/22 09:59:48;;;;;;;36.77;34.17;;;;;;;;;;5056715;28;20473;-83
2023/06/22 10:02:15;;;;;;;37.33;34.63;;;;;;;;;;5057927;28;20463;-83
2023/06/22 10:04:42;;;;;;;33.87;31.43;;;;;;;;;;5057186;28;20508;-81
2023/06/22 10:07:10;;;;;;;34.77;32.17;;;;;;;;;;5055422;28;20474;-82
2023/06/22 10:09:37;;;;;;;35.57;32.97;;;;;;;;;;5056810;28;21040;-83
2023/06/22 10:12:05;;;;;;;35.33;32.63;;;;;;;;;;5055323;28;20475;-82
2023/06/22 10:14:32;;;;;;;32.67;30.47;;;;;;;;;;5055578;28;20451;-82
2023/06/22 10:16:59;;;;;;;33.40;31.10;;;;;;;;;;5055571;28;20882;-81
2023/06/22 10:19:26;;;;;;;33.60;31.20;;;;;;;;;;5056384;28;20426;-82
2023/06/22 10:21:53;;;;;;;33.27;30.90;;;;;;;;;;5055305;28;20813;-80
2023/06/22 10:24:22;;;;;;;33.80;31.30;;;;;;;;;;5055653;28;20532;-80
2023/06/22 10:26:49;;;;;;;33.67;31.37;;;;;;;;;;5054903;28;20444;-81
2023/06/22 10:29:16;;;;;;;32.70;30.50;;;;;;;;;;5055095;28;21060;-81
2023/06/22 10:31:43;;;;;;;32.43;30.37;;;;;;;;;;5054853;28;20488;-81
2023/06/22 10:34:10;;;;;;;31.20;29.20;;;;;;;;;;5054996;28;20425;-82
2023/06/22 10:36:37;;;;;;;32.77;30.57;;;;;;;;;;5053648;28;20435;-86
2023/06/22 10:39:04;;;;;;;31.10;29.00;;;;;;;;;;5054038;28;20459;-77
2023/06/22 10:41:32;;;;;;;33.40;30.90;;;;;;;;;;5053903;28;20490;-81
2023/06/22 10:43:59;;;;;;;31.70;29.70;;;;;;;;;;5055753;28;20479;-79
2023/06/22 10:46:27;;;;;;;31.80;29.60;;;;;;;;;;5053898;28;20467;-78
2023/06/22 10:48:56;;;;;;;31.87;29.77;;;;;;;;;;5054022;28;20449;-80
2023/06/22 10:51:24;;;;;;;31.50;29.40;;;;;;;;;;5054043;28;21008;-77
2023/06/22 10:53:51;;;;;;;31.13;29.10;;;;;;;;;;5054241;28;20455;-78
2023/06/22 10:56:18;;;;;;;31.93;29.83;;;;;;;;;;5052428;28;20446;-79
2023/06/22 10:58:47;;;;;;;32.77;30.57;;;;;;;;;;5055453;28;20489;-79
2023/06/22 11:01:14;;;;;;;33.20;30.90;;;;;;;;;;5054758;28;20474;-79
2023/06/22 11:03:41;;;;;;;32.13;30.03;;;;;;;;;;5054489;28;20425;-78
2023/06/22 11:06:08;;;;;;;32.43;30.33;;;;;;;;;;5052814;28;20457;-78
2023/06/22 11:08:35;;;;;;;33.57;31.37;;;;;;;;;;5053133;28;20494;-79
2023/06/22 11:11:02;;;;;;;33.73;31.50;;;;;;;;;;5053657;28;20839;-78
2023/06/22 11:13:29;;;;;;;34.17;32.07;;;;;;;;;;5053957;28;20429;-78
2023/06/22 11:15:57;;;;;;;33.17;30.87;;;;;;;;;;5053217;28;20492;-79
2023/06/22 11:18:24;;;;;;;34.77;32.53;;;;;;;;;;5054929;28;20422;-78
2023/06/22 11:20:51;;;;;;;33.27;31.07;;;;;;;;;;5054652;28;20473;-80
2023/06/22 11:23:19;;;;;;;33.93;31.73;;;;;;;;;;5068424;28;20433;-84
2023/06/22 11:25:46;;;;;;;32.80;30.70;;;;;;;;;;5072836;28;20445;-79
2023/06/22 11:28:13;;;;;;;34.00;31.80;;;;;;;;;;5074518;28;20533;-77
2023/06/22 11:30:40;;;;;;;33.47;31.27;;;;;;;;;;5073369;28;20456;-78
2023/06/22 11:33:08;;;;;;;32.80;30.60;;;;;;;;;;5074299;28;20449;-79
2023/06/22 11:35:35;;;;;;;31.70;29.70;;;;;;;;;;5072998;28;20457;-80
2023/06/22 11:38:03;;;;;;;33.67;31.47;;;;;;;;;;5076750;28;20458;-84
2023/06/22 11:40:30;;;;;;;33.10;30.80;;;;;;;;;;5075940;28;20954;-87
2023/06/22 11:42:57;;;;;;;30.27;28.30;;;;;;;;;;5073356;28;20432;-80
2023/06/22 11:45:24;;;;;;;32.60;30.50;;;;;;;;;;5073811;28;20430;-79
2023/06/22 11:47:51;;;;;;;31.50;29.50;;;;;;;;;;5074178;28;20481;-79
2023/06/22 11:50:20;;;;;;;31.70;29.57;;;;;;;;;;5073487;28;20497;-79
2023/06/22 11:52:47;;;;;;;32.10;29.73;;;;;;;;;;5073584;28;20470;-79
2023/06/22 11:55:14;;;;;;;31.80;29.70;;;;;;;;;;5073392;28;20428;-80
2023/06/22 11:57:58;;;;;;;30.87;28.67;;;;;;;;;;5072190;28;20417;-79
2023/06/22 12:00:25;;;;;;;31.67;29.00;;;;;;;;;;5073229;28;20439;-80
2023/06/22 12:02:52;;;;;;;31.57;29.47;;;;;;;;;;5073521;28;20462;-80
2023/06/22 12:05:21;;;;;;;30.90;28.80;;;;;;;;;;5073984;28;20503;-79
2023/06/22 12:07:48;;;;;;;31.60;29.50;;;;;;;;;;5073629;28;20456;-82
2023/06/22 12:10:15;;;;;;;32.13;30.13;;;;;;;;;;5074357;28;20464;-78
2023/06/22 12:12:42;;;;;;;31.80;29.80;;;;;;;;;;5081886;28;20424;-78
2023/06/22 12:15:10;;;;;;;32.07;29.83;;;;;;;;;;5079794;28;20413;-79
2023/06/22 12:17:37;;;;;;;31.90;29.80;;;;;;;;;;5073849;28;20470;-79
2023/06/22 12:20:05;;;;;;;32.40;30.00;;;;;;;;;;5074178;28;20444;-79
2023/06/22 12:22:34;;;;;;;32.37;30.20;;;;;;;;;;5074305;28;20836;-79
2023/06/22 12:25:01;;;;;;;32.63;30.53;;;;;;;;;;5074399;28;20766;-79
2023/06/22 12:27:30;;;;;;;31.83;29.83;;;;;;;;;;5074171;28;20932;-78
2023/06/22 12:29:57;;;;;;;32.10;30.00;;;;;;;;;;5074181;28;20464;-81
2023/06/22 12:32:25;;;;;;;33.00;30.80;;;;;;;;;;5074079;28;20800;-78
2023/06/22 12:34:52;;;;;;;33.20;30.67;;;;;;;;;;5074739;28;20456;-77
2023/06/22 12:37:19;;;;;;;31.90;29.80;;;;;;;;;;5073440;28;20449;-80
2023/06/22 12:39:47;;;;;;;32.87;30.67;;;;;;;;;;5073709;28;20930;-80
2023/06/22 12:42:14;;;;;;;32.13;30.03;;;;;;;;;;5074028;28;20791;-78
2023/06/22 12:44:42;;;;;;;30.77;28.83;;;;;;;;;;5074645;28;20449;-79
2023/06/22 12:47:09;;;;;;;33.03;30.63;;;;;;;;;;5074109;28;20495;-80
2023/06/22 12:49:36;;;;;;;31.07;28.87;;;;;;;;;;5087623;28;20473;-80
2023/06/22 12:52:03;;;;;;;32.50;30.20;;;;;;;;;;5075942;28;20474;-79
2023/06/22 12:54:30;;;;;;;32.87;30.50;;;;;;;;;;5074977;28;20897;-79
2023/06/22 12:56:58;;;;;;;32.10;29.90;;;;;;;;;;5073897;28;20454;-80
2023/06/22 12:59:25;;;;;;;34.70;32.27;;;;;;;;;;5076124;28;20471;-80
2023/06/22 13:01:52;;;;;;;35.90;33.30;;;;;;;;;;5075291;28;20508;-80
2023/06/22 13:04:19;;;;;;;35.20;32.70;;;;;;;;;;5078516;28;20483;-81
2023/06/22 13:06:47;;;;;;;42.07;38.90;;;;;;;;;;5078809;28;20918;-80
2023/06/22 13:09:15;;;;;;;44.80;41.30;;;;;;;;;;5078826;28;20512;-80
2023/06/22 13:11:42;;;;;;;46.60;42.60;;;;;;;;;;5078379;28;20972;-79
2023/06/22 13:14:10;;;;;;;45.63;41.97;;;;;;;;;;5078569;28;20795;-80
2023/06/22 13:16:37;;;;;;;47.20;43.70;;;;;;;;;;5078145;28;20438;-81
2023/06/22 13:19:04;;;;;;;47.90;44.27;;;;;;;;;;5079685;28;20473;-79
2023/06/22 13:21:33;;;;;;;47.43;43.93;;;;;;;;;;5079451;28;20433;-81
2023/06/22 13:24:00;;;;;;;47.37;43.90;;;;;;;;;;5080343;28;20420;-81
2023/06/22 13:26:29;;;;;;;49.10;45.47;;;;;;;;;;5079320;28;20426;-81
2023/06/22 13:28:56;;;;;;;51.67;47.80;;;;;;;;;;5078839;28;20445;-81
2023/06/22 13:31:24;;;;;;;63.60;55.03;;;;;;;;;;5079346;28;20850;-81
2023/06/22 13:33:52;;;;;;;122.23;89.20;;;;;;;;;;5078895;28;20465;-81
2023/06/22 13:36:19;;;;;;;113.47;104.63;;;;;;;;;;5078099;28;20473;-79
2023/06/22 13:38:47;;;;;;;124.53;115.53;;;;;;;;;;5077743;28;20952;-80
2023/06/22 13:41:14;;;;;;;135.77;125.47;;;;;;;;;;5077914;28;20474;-79
2023/06/22 13:43:41;;;;;;;142.77;129.73;;;;;;;;;;5077476;28;20471;-81
2023/06/22 13:46:08;;;;;;;143.80;60.90;;;;;;;;;;5077027;28;20442;-80
2023/06/22 13:48:36;;;;;;;99.07;49.97;;;;;;;;;;5077542;28;20537;-81
2023/06/22 13:51:03;;;;;;;101.10;45.27;;;;;;;;;;5076827;28;20468;-82
2023/06/22 13:53:30;;;;;;;45.57;40.63;;;;;;;;;;5077386;28;20431;-81
2023/06/22 13:55:57;;;;;;;32.50;29.47;;;;;;;;;;5076041;28;20937;-82
2023/06/22 13:58:24;;;;;;;56.93;39.53;;;;;;;;;;5076913;28;20460;-81
2023/06/22 14:00:51;;;;;;;45.40;40.57;;;;;;;;;;5077066;28;20502;-82
2023/06/22 14:03:18;;;;;;;52.77;41.87;;;;;;;;;;5077764;28;20483;-81
2023/06/22 14:05:46;;;;;;;43.40;39.20;;;;;;;;;;5078302;28;20458;-81
2023/06/22 14:08:14;;;;;;;45.30;40.40;;;;;;;;;;5077566;28;20420;-78
2023/06/22 14:10:41;;;;;;;46.20;42.07;;;;;;;;;;5081528;28;20520;-79
2023/06/22 14:13:08;;;;;;;49.27;44.17;;;;;;;;;;5078070;28;20428;-78
2023/06/22 14:15:35;;;;;;;49.83;43.10;;;;;;;;;;5077637;28;20443;-79
2023/06/22 14:18:02;;;;;;;50.27;44.90;;;;;;;;;;5076617;28;20412;-77